createdAt,value
2023-02-23T00:01:17.211Z,14.74
2023-02-23T00:03:45.617Z,14.77
2023-02-23T00:06:13.700Z,14.19
2023-02-23T00:08:40.966Z,13.60
2023-02-23T00:11:10.527Z,14.60
2023-02-23T00:13:38.149Z,14.63
2023-02-23T00:16:09.391Z,14.40
2023-02-23T00:18:45.154Z,13.14
2023-02-23T00:21:15.269Z,12.89
2023-02-23T00:23:43.167Z,13.45
2023-02-23T00:26:10.513Z,13.32
2023-02-23T00:28:37.939Z,14.03
2023-02-23T00:31:05.510Z,13.31
2023-02-23T00:33:34.731Z,12.76
2023-02-23T00:36:05.637Z,12.93
2023-02-23T00:38:36.130Z,12.98
2023-02-23T00:41:12.091Z,12.96
2023-02-23T00:43:47.752Z,14.08
2023-02-23T00:46:19.024Z,13.99
2023-02-23T00:48:46.478Z,13.07
2023-02-23T00:51:13.717Z,13.71
2023-02-23T00:53:44.300Z,13.12
2023-02-23T00:56:12.790Z,13.61
2023-02-23T00:58:40.023Z,13.02
2023-02-23T01:01:08.005Z,12.63
2023-02-23T01:03:35.926Z,13.31
2023-02-23T01:06:06.180Z,12.98
2023-02-23T01:08:34.253Z,13.15
2023-02-23T01:11:14.910Z,12.42
2023-02-23T01:13:43.053Z,12.47
2023-02-23T01:16:11.752Z,12.33
2023-02-23T01:18:39.660Z,12.14
2023-02-23T01:21:14.177Z,11.64
2023-02-23T01:23:41.595Z,12.26
2023-02-23T01:26:19.171Z,12.37
2023-02-23T01:28:53.571Z,11.93
2023-02-23T01:31:23.731Z,11.33
2023-02-23T01:33:54.662Z,11.59
2023-02-23T01:36:23.013Z,11.13
2023-02-23T01:38:50.578Z,11.66
2023-02-23T01:41:18.058Z,12.27
2023-02-23T01:44:05.988Z,12.02
2023-02-23T01:46:36.600Z,12.02
2023-02-23T01:49:03.954Z,12.73
2023-02-23T01:51:32.981Z,12.46
2023-02-23T01:54:02.136Z,11.77
2023-02-23T01:56:30.281Z,11.88
2023-02-23T01:58:58.042Z,12.26
2023-02-23T02:01:25.682Z,11.74
2023-02-23T02:04:06.671Z,12.13
2023-02-23T02:06:34.757Z,11.96
2023-02-23T02:09:08.042Z,11.85
2023-02-23T02:11:39.171Z,12.11
2023-02-23T02:14:12.872Z,11.93
2023-02-23T02:16:42.446Z,11.29
2023-02-23T02:19:18.819Z,12.05
2023-02-23T02:22:04.964Z,12.01
2023-02-23T02:24:39.400Z,11.94
2023-02-23T02:27:07.586Z,12.18
2023-02-23T02:29:53.670Z,12.05
2023-02-23T02:32:20.901Z,11.37
2023-02-23T02:34:51.770Z,12.30
2023-02-23T02:37:27.504Z,12.03
2023-02-23T02:40:14.291Z,11.42
2023-02-23T02:42:59.657Z,11.44
2023-02-23T02:45:31.752Z,11.59
2023-02-23T02:48:11.088Z,12.28
2023-02-23T02:50:46.961Z,11.63
2023-02-23T02:53:15.212Z,11.65
2023-02-23T02:55:48.196Z,11.42
2023-02-23T02:58:15.502Z,11.39
2023-02-23T03:01:05.450Z,11.13
2023-02-23T03:03:55.643Z,10.93
2023-02-23T03:06:48.526Z,11.34
2023-02-23T03:09:54.062Z,11.83
2023-02-23T03:12:39.946Z,10.91
2023-02-23T03:15:26.306Z,10.85
2023-02-23T03:18:26.696Z,10.96
2023-02-23T03:21:13.458Z,11.10
2023-02-23T03:24:01.753Z,11.80
2023-02-23T03:27:00.127Z,10.64
2023-02-23T03:30:06.007Z,11.42
2023-02-23T03:33:00.278Z,11.18
2023-02-23T03:35:48.483Z,11.26
2023-02-23T03:38:35.624Z,11.23
2023-02-23T03:41:21.618Z,11.71
2023-02-23T03:44:09.019Z,11.88
2023-02-23T03:46:55.027Z,12.03
2023-02-23T03:49:41.489Z,11.87
2023-02-23T03:52:35.629Z,12.45
2023-02-23T03:55:23.466Z,13.09
2023-02-23T03:58:09.816Z,12.62
2023-02-23T04:00:58.800Z,12.99
2023-02-23T04:03:45.193Z,11.72
2023-02-23T04:06:31.622Z,11.75
2023-02-23T04:09:18.281Z,12.58
2023-02-23T04:12:04.221Z,12.42
2023-02-23T04:14:33.889Z,11.80
2023-02-23T04:17:01.025Z,11.85
2023-02-23T04:19:28.803Z,12.94
2023-02-23T04:21:56.268Z,12.24
2023-02-23T04:24:23.422Z,12.35
2023-02-23T04:26:50.665Z,11.83
2023-02-23T04:29:18.093Z,11.69
2023-02-23T04:31:46.010Z,11.65
2023-02-23T04:34:14.363Z,10.93
2023-02-23T04:36:42.700Z,11.05
2023-02-23T04:39:09.857Z,10.89
2023-02-23T04:41:37.049Z,11.17
2023-02-23T04:44:05.501Z,11.64
2023-02-23T04:46:32.663Z,11.31
2023-02-23T04:48:59.967Z,11.40
2023-02-23T04:51:32.210Z,10.15
2023-02-23T04:53:59.710Z,10.94
2023-02-23T04:56:26.863Z,10.92
2023-02-23T04:58:54.418Z,11.13
2023-02-23T05:01:22.558Z,11.18
2023-02-23T05:03:50.109Z,10.44
2023-02-23T05:06:17.734Z,10.50
2023-02-23T05:08:45.676Z,11.62
2023-02-23T05:11:12.847Z,11.01
2023-02-23T05:13:40.366Z,10.72
2023-02-23T05:16:07.811Z,10.88
2023-02-23T05:18:34.982Z,10.95
2023-02-23T05:21:03.092Z,10.71
2023-02-23T05:23:30.402Z,10.99
2023-02-23T05:26:01.384Z,10.80
2023-02-23T05:28:28.815Z,10.54
2023-02-23T05:30:56.070Z,10.83
2023-02-23T05:33:23.264Z,11.04
2023-02-23T05:35:50.689Z,11.54
2023-02-23T05:38:17.863Z,10.54
2023-02-23T05:40:45.008Z,10.09
2023-02-23T05:43:12.451Z,10.59
2023-02-23T05:45:40.418Z,11.06
2023-02-23T05:48:07.932Z,11.04
2023-02-23T05:50:35.746Z,11.16
2023-02-23T05:53:03.407Z,10.36
2023-02-23T05:55:30.853Z,10.54
2023-02-23T05:57:58.367Z,11.18
2023-02-23T06:00:25.700Z,11.41
2023-02-23T06:02:54.036Z,11.06
2023-02-23T06:05:21.314Z,11.25
2023-02-23T06:07:48.471Z,10.85
2023-02-23T06:10:16.276Z,10.52
2023-02-23T06:12:43.437Z,11.33
2023-02-23T06:15:10.819Z,11.49
2023-02-23T06:17:38.292Z,10.79
2023-02-23T06:20:07.137Z,11.58
2023-02-23T06:22:34.375Z,11.92
2023-02-23T06:25:04.996Z,11.57
2023-02-23T06:27:32.192Z,11.33
2023-02-23T06:29:59.400Z,10.71
2023-02-23T06:32:27.077Z,10.52
2023-02-23T06:34:54.851Z,10.57
2023-02-23T06:37:22.034Z,11.32
2023-02-23T06:39:50.478Z,10.66
2023-02-23T06:42:17.667Z,11.01
2023-02-23T06:44:44.813Z,11.65
2023-02-23T06:47:12.239Z,10.93
2023-02-23T06:49:40.610Z,11.10
2023-02-23T06:52:08.105Z,11.30
2023-02-23T06:54:35.816Z,11.16
2023-02-23T06:57:02.988Z,10.95
2023-02-23T06:59:30.556Z,11.27
2023-02-23T07:01:58.032Z,11.04
2023-02-23T07:04:25.812Z,11.03
2023-02-23T07:06:53.507Z,10.95
2023-02-23T07:09:20.944Z,11.07
2023-02-23T07:11:48.173Z,11.31
2023-02-23T07:14:21.487Z,11.69
2023-02-23T07:16:53.846Z,11.42
2023-02-23T07:19:21.025Z,10.82
2023-02-23T07:21:48.184Z,11.02
2023-02-23T07:24:15.647Z,11.17
2023-02-23T07:26:47.224Z,11.01
2023-02-23T07:29:14.492Z,11.33
2023-02-23T07:31:42.044Z,11.35
2023-02-23T07:34:09.381Z,11.82
2023-02-23T07:36:36.722Z,11.55
2023-02-23T07:39:04.921Z,11.56
2023-02-23T07:41:32.344Z,11.39
2023-02-23T07:43:59.772Z,11.74
2023-02-23T07:46:27.207Z,11.69
2023-02-23T07:48:54.370Z,11.72
2023-02-23T07:51:21.739Z,10.36
2023-02-23T07:53:49.551Z,10.80
2023-02-23T07:56:16.737Z,11.47
2023-02-23T07:58:44.497Z,10.89
2023-02-23T08:01:12.429Z,11.65
2023-02-23T08:03:39.971Z,11.64
2023-02-23T08:06:07.377Z,10.86
2023-02-23T08:08:35.382Z,10.83
2023-02-23T08:11:04.048Z,11.48
2023-02-23T08:13:31.454Z,11.37
2023-02-23T08:16:01.350Z,11.98
2023-02-23T08:18:28.767Z,11.32
2023-02-23T08:20:59.454Z,11.69
2023-02-23T08:23:26.811Z,12.00
2023-02-23T08:25:54.766Z,12.25
2023-02-23T08:28:22.563Z,12.34
2023-02-23T08:30:49.781Z,11.96
2023-02-23T08:33:17.544Z,12.01
2023-02-23T08:35:45.337Z,11.96
2023-02-23T08:38:12.502Z,11.90
2023-02-23T08:40:39.947Z,11.72
2023-02-23T08:43:07.106Z,12.74
2023-02-23T08:45:34.258Z,11.85
2023-02-23T08:48:01.690Z,11.91
2023-02-23T08:50:28.954Z,11.86
2023-02-23T08:52:56.219Z,12.52
2023-02-23T08:55:24.028Z,11.39
2023-02-23T08:57:51.243Z,11.96
2023-02-23T09:00:18.660Z,11.81
2023-02-23T09:02:48.268Z,13.13
2023-02-23T09:05:15.862Z,13.02
2023-02-23T09:07:45.241Z,12.45
2023-02-23T09:10:13.876Z,12.14
2023-02-23T09:12:41.069Z,11.18
2023-02-23T09:15:08.606Z,11.67
2023-02-23T09:17:36.057Z,12.09
2023-02-23T09:20:03.817Z,12.84
2023-02-23T09:22:31.447Z,11.46
2023-02-23T09:24:58.898Z,12.46
2023-02-23T09:27:26.076Z,12.78
2023-02-23T09:29:53.235Z,12.54
2023-02-23T09:32:20.782Z,11.92
2023-02-23T09:34:48.715Z,12.46
2023-02-23T09:37:15.963Z,12.34
2023-02-23T09:39:43.665Z,12.44
2023-02-23T09:42:19.890Z,11.80
2023-02-23T09:44:47.584Z,12.30
2023-02-23T09:47:19.860Z,11.99
2023-02-23T09:49:47.313Z,12.08
2023-02-23T09:52:16.835Z,12.60
2023-02-23T09:54:44.223Z,12.30
2023-02-23T09:57:13.232Z,12.07
2023-02-23T09:59:40.340Z,12.85
2023-02-23T10:02:10.433Z,13.27
2023-02-23T10:04:44.957Z,13.34
2023-02-23T10:07:17.848Z,13.25
2023-02-23T10:09:52.082Z,13.09
2023-02-23T10:12:22.192Z,13.17
2023-02-23T10:15:08.570Z,12.81
2023-02-23T10:17:51.094Z,12.51
2023-02-23T10:20:30.376Z,13.32
2023-02-23T10:22:58.406Z,13.70
2023-02-23T10:25:26.410Z,12.76
2023-02-23T10:27:55.727Z,12.48
2023-02-23T10:30:24.263Z,12.75
2023-02-23T10:32:57.811Z,12.90
2023-02-23T10:35:26.471Z,12.28
2023-02-23T10:37:53.926Z,12.56
2023-02-23T10:40:28.817Z,12.27
2023-02-23T10:42:56.554Z,13.28
2023-02-23T10:45:24.905Z,12.48
2023-02-23T10:47:53.169Z,13.04
2023-02-23T10:50:22.577Z,13.28
2023-02-23T10:52:50.893Z,14.18
2023-02-23T10:55:24.500Z,12.91
2023-02-23T10:58:01.098Z,13.78
2023-02-23T11:00:33.186Z,14.18
2023-02-23T11:03:01.570Z,13.56
2023-02-23T11:05:55.268Z,13.43
2023-02-23T11:08:25.083Z,13.21
2023-02-23T11:11:04.317Z,12.98
2023-02-23T11:13:39.326Z,13.19
2023-02-23T11:16:13.943Z,14.00
2023-02-23T11:18:51.444Z,13.98
2023-02-23T11:21:22.248Z,14.69
2023-02-23T11:23:50.253Z,14.41
2023-02-23T11:26:23.072Z,14.53
2023-02-23T11:28:51.758Z,14.96
2023-02-23T11:31:23.264Z,14.68
2023-02-23T11:33:51.037Z,14.78
2023-02-23T11:36:26.904Z,14.11
2023-02-23T11:39:20.124Z,14.54
2023-02-23T11:41:47.296Z,14.38
2023-02-23T11:44:22.175Z,14.12
2023-02-23T11:46:50.716Z,13.77
2023-02-23T11:49:20.314Z,13.81
2023-02-23T11:51:49.123Z,13.97
2023-02-23T11:54:45.658Z,13.34
2023-02-23T11:57:19.719Z,14.23
2023-02-23T11:59:48.147Z,13.89
2023-02-23T12:02:29.133Z,14.37
2023-02-23T12:05:09.638Z,13.58
2023-02-23T12:07:43.950Z,13.41
2023-02-23T12:10:15.218Z,13.43
2023-02-23T12:12:45.278Z,14.62
2023-02-23T12:15:16.228Z,13.94
2023-02-23T12:17:48.942Z,13.43
2023-02-23T12:20:18.662Z,14.25
2023-02-23T12:22:50.555Z,13.18
2023-02-23T12:25:18.030Z,13.24
2023-02-23T12:27:46.549Z,13.27
2023-02-23T12:30:26.981Z,13.62
2023-02-23T12:32:57.946Z,13.67
2023-02-23T12:35:31.173Z,13.88
2023-02-23T12:38:01.188Z,13.94
2023-02-23T12:40:29.338Z,14.69
2023-02-23T12:43:02.170Z,13.61
2023-02-23T12:45:49.558Z,13.11
2023-02-23T12:48:16.783Z,13.95
2023-02-23T12:50:52.889Z,14.60
2023-02-23T12:53:21.632Z,13.72
2023-02-23T12:55:49.050Z,13.60
2023-02-23T12:58:23.054Z,13.60
2023-02-23T13:00:58.712Z,13.77
2023-02-23T13:03:44.319Z,14.00
2023-02-23T13:06:11.772Z,14.83
2023-02-23T13:08:51.120Z,13.82
2023-02-23T13:11:23.216Z,13.43
2023-02-23T13:13:57.957Z,13.92
2023-02-23T13:16:40.342Z,13.80
2023-02-23T13:19:16.409Z,13.86
2023-02-23T13:21:46.889Z,14.34
2023-02-23T13:24:14.055Z,14.79
2023-02-23T13:26:41.158Z,14.55
2023-02-23T13:29:27.415Z,15.15
2023-02-23T13:31:54.719Z,15.05
2023-02-23T13:34:25.739Z,15.33
2023-02-23T13:36:52.945Z,14.66
2023-02-23T13:39:20.130Z,14.98
2023-02-23T13:42:01.805Z,14.56
2023-02-23T13:44:38.117Z,14.28
2023-02-23T13:47:14.937Z,14.60
2023-02-23T13:49:46.497Z,14.61
2023-02-23T13:52:35.730Z,14.93
2023-02-23T13:55:04.010Z,14.58
2023-02-23T13:57:31.651Z,14.69
2023-02-23T13:59:58.962Z,14.53
2023-02-23T14:02:30.699Z,14.18
2023-02-23T14:05:01.604Z,13.79
2023-02-23T14:07:30.998Z,14.29
2023-02-23T14:10:09.510Z,14.93
2023-02-23T14:12:41.038Z,14.52
2023-02-23T14:15:28.208Z,14.53
2023-02-23T14:17:55.474Z,14.63
2023-02-23T14:20:43.202Z,15.22
2023-02-23T14:23:16.671Z,16.04
2023-02-23T14:25:45.466Z,15.56
2023-02-23T14:28:27.039Z,14.45
2023-02-23T14:31:07.146Z,15.26
2023-02-23T14:33:41.917Z,15.94
2023-02-23T14:36:21.467Z,16.15
2023-02-23T14:38:51.595Z,15.74
2023-02-23T14:41:25.708Z,15.40
2023-02-23T14:43:54.231Z,14.98
2023-02-23T14:46:22.347Z,15.96
2023-02-23T14:49:05.554Z,14.85
2023-02-23T14:51:48.018Z,15.40
2023-02-23T14:54:21.195Z,15.43
2023-02-23T14:56:50.164Z,15.57
2023-02-23T14:59:18.603Z,14.71
2023-02-23T15:01:45.856Z,15.65
2023-02-23T15:04:14.521Z,14.83
2023-02-23T15:06:42.533Z,16.40
2023-02-23T15:09:13.736Z,16.35
2023-02-23T15:11:43.903Z,17.11
2023-02-23T15:14:25.605Z,17.20
2023-02-23T15:16:55.023Z,17.29
2023-02-23T15:19:33.135Z,17.29
2023-02-23T15:22:01.091Z,17.50
2023-02-23T15:24:31.032Z,16.76
2023-02-23T15:26:58.362Z,17.74
2023-02-23T15:29:30.328Z,17.70
2023-02-23T15:32:09.917Z,16.78
2023-02-23T15:34:37.680Z,17.37
2023-02-23T15:37:06.296Z,17.37
2023-02-23T15:39:37.435Z,17.55
2023-02-23T15:42:04.992Z,17.14
2023-02-23T15:44:42.582Z,17.36
2023-02-23T15:47:21.924Z,18.04
2023-02-23T15:49:50.326Z,18.30
2023-02-23T15:52:18.473Z,18.31
2023-02-23T15:55:00.495Z,18.26
2023-02-23T15:57:45.068Z,18.52
2023-02-23T16:00:33.484Z,18.76
2023-02-23T16:03:02.973Z,18.95
2023-02-23T16:05:41.846Z,18.91
2023-02-23T16:08:22.911Z,18.90
2023-02-23T16:10:51.177Z,19.05
2023-02-23T16:13:22.541Z,19.12
2023-02-23T16:15:50.135Z,19.13
2023-02-23T16:18:20.658Z,19.23
2023-02-23T16:20:48.785Z,19.23
2023-02-23T16:23:28.584Z,19.08
2023-02-23T16:26:02.670Z,19.07
2023-02-23T16:28:33.521Z,18.88
2023-02-23T16:31:02.428Z,18.79
2023-02-23T16:33:49.397Z,18.83
2023-02-23T16:36:22.301Z,18.82
2023-02-23T16:39:00.297Z,18.94
2023-02-23T16:41:30.667Z,18.82
2023-02-23T16:43:59.554Z,18.82
2023-02-23T16:46:47.677Z,18.92
2023-02-23T16:49:16.524Z,18.88
2023-02-23T16:51:44.660Z,18.87
2023-02-23T16:54:12.683Z,18.89
2023-02-23T16:56:40.770Z,18.53
2023-02-23T16:59:11.039Z,18.54
2023-02-23T17:01:39.167Z,18.26
2023-02-23T17:04:15.800Z,18.12
2023-02-23T17:06:44.897Z,17.58
2023-02-23T17:09:14.104Z,17.94
2023-02-23T17:11:42.706Z,17.78
2023-02-23T17:14:12.172Z,18.26
2023-02-23T17:16:40.955Z,18.39
2023-02-23T17:19:08.205Z,18.32
2023-02-23T17:21:36.921Z,18.48
2023-02-23T17:24:05.946Z,18.05
2023-02-23T17:26:33.735Z,18.42
2023-02-23T17:29:01.914Z,18.41
2023-02-23T17:31:32.497Z,18.34
2023-02-23T17:34:00.481Z,18.31
2023-02-23T17:36:28.870Z,18.31
2023-02-23T17:38:58.886Z,18.40
2023-02-23T17:41:27.284Z,18.52
2023-02-23T17:43:55.158Z,18.37
2023-02-23T17:46:25.133Z,18.43
2023-02-23T17:48:55.192Z,18.31
2023-02-23T17:51:26.669Z,18.04
2023-02-23T17:53:55.045Z,17.71
2023-02-23T17:56:24.579Z,17.85
2023-02-23T17:58:53.659Z,17.95
2023-02-23T18:01:21.820Z,17.83
2023-02-23T18:03:51.341Z,17.99
2023-02-23T18:06:20.189Z,17.98
2023-02-23T18:08:48.372Z,17.99
2023-02-23T18:11:19.113Z,17.82
2023-02-23T18:13:51.551Z,17.93
2023-02-23T18:16:21.703Z,17.74
2023-02-23T18:18:52.990Z,17.82
2023-02-23T18:21:42.617Z,17.78
2023-02-23T18:24:13.216Z,17.33
2023-02-23T18:26:41.877Z,17.16
2023-02-23T18:29:10.505Z,17.42
2023-02-23T18:31:38.875Z,17.64
2023-02-23T18:34:08.565Z,17.54
2023-02-23T18:36:39.650Z,17.66
2023-02-23T18:39:08.843Z,17.81
2023-02-23T18:41:37.074Z,17.73
2023-02-23T18:44:06.191Z,17.82
2023-02-23T18:46:39.989Z,17.43
2023-02-23T18:49:13.627Z,17.38
2023-02-23T18:51:43.436Z,17.68
2023-02-23T18:54:17.410Z,17.71
2023-02-23T18:56:50.237Z,17.29
2023-02-23T18:59:19.000Z,17.20
2023-02-23T19:01:48.953Z,17.60
2023-02-23T19:04:17.626Z,17.46
2023-02-23T19:06:51.493Z,17.45
2023-02-23T19:09:23.215Z,17.35
2023-02-23T19:11:52.004Z,17.48
2023-02-23T19:14:32.873Z,17.83
2023-02-23T19:17:05.203Z,17.83
2023-02-23T19:19:34.744Z,17.95
2023-02-23T19:22:03.397Z,17.87
2023-02-23T19:24:31.791Z,17.74
2023-02-23T19:27:00.621Z,17.80
2023-02-23T19:29:29.250Z,17.99
2023-02-23T19:31:58.836Z,17.84
2023-02-23T19:34:28.574Z,17.64
2023-02-23T19:36:58.543Z,17.77
2023-02-23T19:39:26.993Z,17.83
2023-02-23T19:41:55.999Z,17.91
2023-02-23T19:44:28.472Z,17.97
2023-02-23T19:47:06.020Z,17.56
2023-02-23T19:49:34.480Z,17.74
2023-02-23T19:52:03.557Z,17.76
2023-02-23T19:54:34.676Z,17.38
2023-02-23T19:57:06.124Z,17.44
2023-02-23T19:59:35.953Z,17.70
2023-02-23T20:02:05.118Z,17.63
2023-02-23T20:04:33.974Z,17.20
2023-02-23T20:07:02.558Z,17.38
2023-02-23T20:09:31.059Z,17.70
2023-02-23T20:11:59.940Z,17.31
2023-02-23T20:14:33.185Z,17.57
2023-02-23T20:17:01.828Z,17.36
2023-02-23T20:19:30.413Z,17.72
2023-02-23T20:21:59.649Z,17.88
2023-02-23T20:24:30.233Z,17.78
2023-02-23T20:26:59.890Z,17.74
2023-02-23T20:29:29.341Z,17.65
2023-02-23T20:32:00.022Z,17.89
2023-02-23T20:34:30.022Z,17.91
2023-02-23T20:37:00.914Z,16.96
2023-02-23T20:39:29.668Z,17.23
2023-02-23T20:41:58.341Z,17.61
2023-02-23T20:44:28.222Z,17.48
2023-02-23T20:46:57.221Z,17.87
2023-02-23T20:49:26.064Z,17.48
2023-02-23T20:51:57.554Z,17.44
2023-02-23T20:54:27.128Z,16.75
2023-02-23T20:57:15.334Z,16.27
2023-02-23T20:59:44.511Z,15.53
2023-02-23T21:02:14.572Z,15.82
2023-02-23T21:04:44.300Z,15.63
2023-02-23T21:07:13.847Z,15.81
2023-02-23T21:09:42.906Z,15.51
2023-02-23T21:12:11.131Z,14.70
2023-02-23T21:14:39.708Z,15.25
2023-02-23T21:17:07.908Z,14.98
2023-02-23T21:19:36.813Z,15.63
2023-02-23T21:22:04.551Z,15.68
2023-02-23T21:24:34.293Z,15.07
2023-02-23T21:27:05.627Z,15.80
2023-02-23T21:29:33.901Z,16.10
2023-02-23T21:32:02.148Z,15.94
2023-02-23T21:34:29.887Z,15.35
2023-02-23T21:36:59.628Z,15.53
2023-02-23T21:39:28.093Z,14.36
2023-02-23T21:41:55.841Z,15.30
2023-02-23T21:44:23.662Z,13.96
2023-02-23T21:46:52.134Z,14.02
2023-02-23T21:49:19.563Z,13.61
2023-02-23T21:51:47.177Z,13.59
2023-02-23T21:54:16.181Z,12.78
2023-02-23T21:56:43.471Z,13.57
2023-02-23T21:59:10.939Z,13.90
2023-02-23T22:01:38.743Z,14.53
2023-02-23T22:04:07.895Z,14.21
2023-02-23T22:06:38.431Z,13.85
2023-02-23T22:09:06.342Z,14.04
2023-02-23T22:11:36.388Z,14.09
2023-02-23T22:14:06.494Z,14.72
2023-02-23T22:16:35.954Z,14.17
2023-02-23T22:19:04.618Z,14.07
2023-02-23T22:21:34.294Z,14.03
2023-02-23T22:24:05.181Z,13.84
2023-02-23T22:26:37.365Z,13.80
2023-02-23T22:29:05.246Z,13.77
2023-02-23T22:31:32.496Z,13.96
2023-02-23T22:33:59.865Z,14.35
2023-02-23T22:36:27.326Z,13.69
2023-02-23T22:38:57.307Z,13.58
2023-02-23T22:41:24.556Z,14.40
2023-02-23T22:43:52.447Z,14.76
2023-02-23T22:46:19.618Z,14.85
2023-02-23T22:48:46.765Z,14.86
2023-02-23T22:51:15.955Z,13.82
2023-02-23T22:53:43.500Z,14.59
2023-02-23T22:56:10.687Z,13.56
2023-02-23T22:58:38.151Z,14.39
2023-02-23T23:01:09.831Z,13.63
2023-02-23T23:03:38.398Z,13.98
2023-02-23T23:06:08.115Z,14.32
2023-02-23T23:08:38.912Z,13.91
2023-02-23T23:11:15.570Z,14.07
2023-02-23T23:13:44.801Z,14.71
2023-02-23T23:16:28.887Z,15.01
2023-02-23T23:19:11.995Z,15.27
2023-02-23T23:21:40.334Z,14.26
2023-02-23T23:24:07.979Z,14.30
2023-02-23T23:26:35.962Z,13.87
2023-02-23T23:29:07.492Z,14.25
2023-02-23T23:31:35.046Z,13.63
2023-02-23T23:34:03.895Z,13.91
2023-02-23T23:36:32.356Z,13.55
2023-02-23T23:38:59.645Z,14.37
2023-02-23T23:41:27.423Z,14.27
2023-02-23T23:43:58.246Z,14.76
2023-02-23T23:46:26.935Z,14.97
2023-02-23T23:48:58.464Z,15.11
2023-02-23T23:51:30.503Z,15.46
2023-02-23T23:53:58.753Z,14.13
2023-02-23T23:56:26.062Z,13.86
2023-02-23T23:58:56.429Z,14.78
